sensor_id;sensor_type;location;lat;lon;timestamp;P1;durP1;ratioP1;P2;durP2;ratioP2
18136;SDS011;9194;42.632;23.298;2022-12-08T00:00:38;55.93;;;19.77;;
18136;SDS011;9194;42.632;23.298;2022-12-08T00:05:46;46.13;;;17.37;;
18136;SDS011;9194;42.632;23.298;2022-12-08T00:11:11;40.23;;;16.67;;
18136;SDS011;9194;42.632;23.298;2022-12-08T00:16:13;48.93;;;15.10;;
18136;SDS011;9194;42.632;23.298;2022-12-08T00:21:15;44.63;;;14.57;;
18136;SDS011;9194;42.632;23.298;2022-12-08T00:26:16;57.57;;;17.70;;
18136;SDS011;9194;42.632;23.298;2022-12-08T00:31:17;34.17;;;12.80;;
18136;SDS011;9194;42.632;23.298;2022-12-08T00:36:18;37.47;;;13.40;;
18136;SDS011;9194;42.632;23.298;2022-12-08T00:41:21;48.70;;;15.30;;
18136;SDS011;9194;42.632;23.298;2022-12-08T00:46:44;34.53;;;14.67;;
18136;SDS011;9194;42.632;23.298;2022-12-08T00:51:46;37.33;;;13.73;;
18136;SDS011;9194;42.632;23.298;2022-12-08T00:56:48;43.20;;;15.20;;
18136;SDS011;9194;42.632;23.298;2022-12-08T01:01:49;44.90;;;15.53;;
18136;SDS011;9194;42.632;23.298;2022-12-08T01:06:50;42.63;;;14.73;;
18136;SDS011;9194;42.632;23.298;2022-12-08T01:11:52;37.80;;;14.27;;
18136;SDS011;9194;42.632;23.298;2022-12-08T01:16:53;41.73;;;14.73;;
18136;SDS011;9194;42.632;23.298;2022-12-08T01:21:54;45.97;;;14.10;;
18136;SDS011;9194;42.632;23.298;2022-12-08T01:26:56;37.73;;;14.03;;
18136;SDS011;9194;42.632;23.298;2022-12-08T01:31:57;38.40;;;11.00;;
18136;SDS011;9194;42.632;23.298;2022-12-08T01:36:59;30.27;;;11.43;;
18136;SDS011;9194;42.632;23.298;2022-12-08T01:42:00;34.20;;;13.03;;
18136;SDS011;9194;42.632;23.298;2022-12-08T01:47:02;39.10;;;13.30;;
18136;SDS011;9194;42.632;23.298;2022-12-08T01:52:06;34.67;;;13.47;;
18136;SDS011;9194;42.632;23.298;2022-12-08T01:57:17;30.73;;;12.03;;
18136;SDS011;9194;42.632;23.298;2022-12-08T02:02:23;31.43;;;11.47;;
18136;SDS011;9194;42.632;23.298;2022-12-08T02:07:29;33.60;;;12.27;;
18136;SDS011;9194;42.632;23.298;2022-12-08T02:12:30;45.10;;;15.37;;
18136;SDS011;9194;42.632;23.298;2022-12-08T02:23:40;27.87;;;10.23;;
18136;SDS011;9194;42.632;23.298;2022-12-08T02:34:09;26.03;;;9.73;;
18136;SDS011;9194;42.632;23.298;2022-12-08T02:44:33;72.67;;;30.20;;
18136;SDS011;9194;42.632;23.298;2022-12-08T02:49:43;47.70;;;20.03;;
18136;SDS011;9194;42.632;23.298;2022-12-08T02:54:46;46.10;;;14.63;;
18136;SDS011;9194;42.632;23.298;2022-12-08T02:59:56;32.83;;;12.73;;
18136;SDS011;9194;42.632;23.298;2022-12-08T03:10:33;24.30;;;8.67;;
18136;SDS011;9194;42.632;23.298;2022-12-08T03:15:40;25.20;;;9.57;;
18136;SDS011;9194;42.632;23.298;2022-12-08T03:20:45;23.53;;;8.50;;
18136;SDS011;9194;42.632;23.298;2022-12-08T03:26:08;26.60;;;9.53;;
18136;SDS011;9194;42.632;23.298;2022-12-08T03:31:18;29.63;;;11.70;;
18136;SDS011;9194;42.632;23.298;2022-12-08T03:36:21;34.63;;;11.97;;
18136;SDS011;9194;42.632;23.298;2022-12-08T03:41:23;34.20;;;11.70;;
18136;SDS011;9194;42.632;23.298;2022-12-08T03:46:25;21.70;;;9.60;;
18136;SDS011;9194;42.632;23.298;2022-12-08T03:51:28;18.47;;;7.07;;
18136;SDS011;9194;42.632;23.298;2022-12-08T03:56:31;19.10;;;7.50;;
18136;SDS011;9194;42.632;23.298;2022-12-08T04:01:34;18.57;;;6.87;;
18136;SDS011;9194;42.632;23.298;2022-12-08T04:06:35;25.53;;;9.27;;
18136;SDS011;9194;42.632;23.298;2022-12-08T04:11:37;18.63;;;7.60;;
18136;SDS011;9194;42.632;23.298;2022-12-08T04:16:38;31.57;;;12.10;;
18136;SDS011;9194;42.632;23.298;2022-12-08T04:21:39;42.27;;;15.33;;
18136;SDS011;9194;42.632;23.298;2022-12-08T04:26:41;37.13;;;12.80;;
18136;SDS011;9194;42.632;23.298;2022-12-08T04:31:42;34.60;;;11.83;;
18136;SDS011;9194;42.632;23.298;2022-12-08T04:36:44;18.63;;;8.03;;
18136;SDS011;9194;42.632;23.298;2022-12-08T04:41:45;14.70;;;7.50;;
18136;SDS011;9194;42.632;23.298;2022-12-08T04:46:46;17.70;;;8.10;;
18136;SDS011;9194;42.632;23.298;2022-12-08T04:51:48;19.50;;;8.63;;
18136;SDS011;9194;42.632;23.298;2022-12-08T04:56:49;39.20;;;13.43;;
18136;SDS011;9194;42.632;23.298;2022-12-08T05:01:50;53.67;;;19.03;;
18136;SDS011;9194;42.632;23.298;2022-12-08T05:06:52;50.20;;;16.77;;
18136;SDS011;9194;42.632;23.298;2022-12-08T05:11:53;59.93;;;19.47;;
18136;SDS011;9194;42.632;23.298;2022-12-08T05:16:54;63.60;;;18.57;;
18136;SDS011;9194;42.632;23.298;2022-12-08T05:21:56;56.00;;;19.13;;
18136;SDS011;9194;42.632;23.298;2022-12-08T05:26:57;54.17;;;18.97;;
18136;SDS011;9194;42.632;23.298;2022-12-08T05:31:58;59.33;;;18.50;;
18136;SDS011;9194;42.632;23.298;2022-12-08T05:37:00;44.83;;;16.57;;
18136;SDS011;9194;42.632;23.298;2022-12-08T05:42:01;48.13;;;16.37;;
18136;SDS011;9194;42.632;23.298;2022-12-08T05:47:03;42.93;;;17.20;;
18136;SDS011;9194;42.632;23.298;2022-12-08T05:52:04;66.27;;;22.13;;
18136;SDS011;9194;42.632;23.298;2022-12-08T05:57:06;86.47;;;29.10;;
18136;SDS011;9194;42.632;23.298;2022-12-08T06:02:07;72.23;;;24.90;;
18136;SDS011;9194;42.632;23.298;2022-12-08T06:07:08;72.43;;;25.23;;
18136;SDS011;9194;42.632;23.298;2022-12-08T06:12:10;81.83;;;26.63;;
18136;SDS011;9194;42.632;23.298;2022-12-08T06:17:11;76.07;;;27.63;;
18136;SDS011;9194;42.632;23.298;2022-12-08T06:22:12;83.63;;;29.60;;
18136;SDS011;9194;42.632;23.298;2022-12-08T06:27:15;90.47;;;30.20;;
18136;SDS011;9194;42.632;23.298;2022-12-08T06:32:16;75.93;;;28.20;;
18136;SDS011;9194;42.632;23.298;2022-12-08T06:37:18;65.50;;;23.47;;
18136;SDS011;9194;42.632;23.298;2022-12-08T06:42:19;47.23;;;19.10;;
18136;SDS011;9194;42.632;23.298;2022-12-08T06:47:39;188.00;;;50.03;;
18136;SDS011;9194;42.632;23.298;2022-12-08T06:52:41;168.17;;;45.20;;
18136;SDS011;9194;42.632;23.298;2022-12-08T06:57:42;50.87;;;18.37;;
18136;SDS011;9194;42.632;23.298;2022-12-08T07:02:44;47.50;;;15.00;;
18136;SDS011;9194;42.632;23.298;2022-12-08T07:07:45;36.07;;;13.47;;
18136;SDS011;9194;42.632;23.298;2022-12-08T07:12:46;44.00;;;13.77;;
18136;SDS011;9194;42.632;23.298;2022-12-08T07:17:48;41.20;;;14.13;;
18136;SDS011;9194;42.632;23.298;2022-12-08T07:22:52;88.47;;;27.43;;
18136;SDS011;9194;42.632;23.298;2022-12-08T07:27:54;101.60;;;36.37;;
18136;SDS011;9194;42.632;23.298;2022-12-08T07:32:55;119.50;;;39.47;;
18136;SDS011;9194;42.632;23.298;2022-12-08T07:37:58;113.20;;;41.27;;
18136;SDS011;9194;42.632;23.298;2022-12-08T07:43:00;123.73;;;40.97;;
18136;SDS011;9194;42.632;23.298;2022-12-08T07:48:01;117.10;;;38.93;;
18136;SDS011;9194;42.632;23.298;2022-12-08T07:53:02;106.87;;;38.73;;
18136;SDS011;9194;42.632;23.298;2022-12-08T07:58:03;97.27;;;36.87;;
18136;SDS011;9194;42.632;23.298;2022-12-08T08:03:05;93.77;;;37.17;;
18136;SDS011;9194;42.632;23.298;2022-12-08T08:08:09;100.80;;;36.07;;
18136;SDS011;9194;42.632;23.298;2022-12-08T08:13:11;88.80;;;33.53;;
18136;SDS011;9194;42.632;23.298;2022-12-08T08:18:12;86.50;;;35.83;;
18136;SDS011;9194;42.632;23.298;2022-12-08T08:23:14;91.93;;;35.00;;
18136;SDS011;9194;42.632;23.298;2022-12-08T08:28:15;94.20;;;35.90;;
18136;SDS011;9194;42.632;23.298;2022-12-08T08:33:16;76.23;;;33.90;;
18136;SDS011;9194;42.632;23.298;2022-12-08T08:38:18;91.67;;;35.20;;
18136;SDS011;9194;42.632;23.298;2022-12-08T08:43:19;77.60;;;35.40;;
18136;SDS011;9194;42.632;23.298;2022-12-08T08:48:29;104.70;;;42.13;;
18136;SDS011;9194;42.632;23.298;2022-12-08T08:53:31;104.53;;;42.60;;
18136;SDS011;9194;42.632;23.298;2022-12-08T08:58:33;124.20;;;47.70;;
18136;SDS011;9194;42.632;23.298;2022-12-08T09:03:34;110.97;;;45.43;;
18136;SDS011;9194;42.632;23.298;2022-12-08T09:08:35;101.93;;;40.37;;
18136;SDS011;9194;42.632;23.298;2022-12-08T09:13:37;101.30;;;40.47;;
18136;SDS011;9194;42.632;23.298;2022-12-08T09:18:38;86.50;;;38.97;;
18136;SDS011;9194;42.632;23.298;2022-12-08T09:23:40;97.33;;;39.00;;
18136;SDS011;9194;42.632;23.298;2022-12-08T09:28:41;83.53;;;37.60;;
18136;SDS011;9194;42.632;23.298;2022-12-08T09:33:46;93.20;;;38.87;;
18136;SDS011;9194;42.632;23.298;2022-12-08T09:38:48;87.30;;;38.63;;
18136;SDS011;9194;42.632;23.298;2022-12-08T09:49:22;92.17;;;34.37;;
18136;SDS011;9194;42.632;23.298;2022-12-08T09:54:35;81.23;;;35.33;;
18136;SDS011;9194;42.632;23.298;2022-12-08T09:59:37;78.47;;;32.53;;
18136;SDS011;9194;42.632;23.298;2022-12-08T10:04:41;75.07;;;31.57;;
18136;SDS011;9194;42.632;23.298;2022-12-08T10:15:32;71.70;;;30.97;;
18136;SDS011;9194;42.632;23.298;2022-12-08T10:20:42;68.23;;;32.27;;
18136;SDS011;9194;42.632;23.298;2022-12-08T10:25:46;58.10;;;25.87;;
18136;SDS011;9194;42.632;23.298;2022-12-08T10:30:58;30.13;;;14.87;;
18136;SDS011;9194;42.632;23.298;2022-12-08T10:35:59;18.30;;;10.17;;
18136;SDS011;9194;42.632;23.298;2022-12-08T10:46:13;21.37;;;9.27;;
18136;SDS011;9194;42.632;23.298;2022-12-08T10:51:22;27.23;;;12.97;;
18136;SDS011;9194;42.632;23.298;2022-12-08T10:56:27;22.67;;;11.97;;
18136;SDS011;9194;42.632;23.298;2022-12-08T11:01:35;18.23;;;10.23;;
18136;SDS011;9194;42.632;23.298;2022-12-08T11:06:38;17.30;;;7.83;;
18136;SDS011;9194;42.632;23.298;2022-12-08T11:11:52;15.93;;;7.73;;
18136;SDS011;9194;42.632;23.298;2022-12-08T11:17:16;14.37;;;6.10;;
18136;SDS011;9194;42.632;23.298;2022-12-08T11:27:24;18.70;;;9.50;;
18136;SDS011;9194;42.632;23.298;2022-12-08T11:32:26;23.20;;;10.10;;
18136;SDS011;9194;42.632;23.298;2022-12-08T11:37:33;22.53;;;9.53;;
18136;SDS011;9194;42.632;23.298;2022-12-08T11:42:49;12.93;;;8.37;;
18136;SDS011;9194;42.632;23.298;2022-12-08T11:48:00;13.43;;;7.20;;
18136;SDS011;9194;42.632;23.298;2022-12-08T11:53:04;17.97;;;7.60;;
18136;SDS011;9194;42.632;23.298;2022-12-08T11:58:17;31.57;;;12.13;;
18136;SDS011;9194;42.632;23.298;2022-12-08T12:03:24;27.80;;;11.70;;
18136;SDS011;9194;42.632;23.298;2022-12-08T12:13:55;39.20;;;14.23;;
18136;SDS011;9194;42.632;23.298;2022-12-08T12:19:13;29.17;;;13.03;;
18136;SDS011;9194;42.632;23.298;2022-12-08T12:24:19;45.97;;;14.67;;
18136;SDS011;9194;42.632;23.298;2022-12-08T12:29:25;41.00;;;15.23;;
18136;SDS011;9194;42.632;23.298;2022-12-08T12:34:32;42.40;;;16.57;;
18136;SDS011;9194;42.632;23.298;2022-12-08T12:45:09;33.63;;;11.33;;
18136;SDS011;9194;42.632;23.298;2022-12-08T13:00:52;22.03;;;9.90;;
18136;SDS011;9194;42.632;23.298;2022-12-08T13:06:12;20.37;;;8.17;;
18136;SDS011;9194;42.632;23.298;2022-12-08T13:11:15;30.33;;;10.20;;
18136;SDS011;9194;42.632;23.298;2022-12-08T13:16:17;26.93;;;11.37;;
18136;SDS011;9194;42.632;23.298;2022-12-08T13:21:24;29.80;;;10.73;;
18136;SDS011;9194;42.632;23.298;2022-12-08T13:26:32;29.87;;;10.17;;
18136;SDS011;9194;42.632;23.298;2022-12-08T13:31:56;26.90;;;10.13;;
18136;SDS011;9194;42.632;23.298;2022-12-08T13:47:15;29.33;;;11.97;;
18136;SDS011;9194;42.632;23.298;2022-12-08T13:58:05;77.40;;;29.53;;
18136;SDS011;9194;42.632;23.298;2022-12-08T14:03:07;23.67;;;11.63;;
18136;SDS011;9194;42.632;23.298;2022-12-08T14:08:28;45.10;;;18.70;;
18136;SDS011;9194;42.632;23.298;2022-12-08T14:13:31;56.27;;;20.37;;
18136;SDS011;9194;42.632;23.298;2022-12-08T14:18:34;33.07;;;14.37;;
18136;SDS011;9194;42.632;23.298;2022-12-08T14:23:35;28.73;;;12.17;;
18136;SDS011;9194;42.632;23.298;2022-12-08T14:28:36;20.87;;;10.13;;
18136;SDS011;9194;42.632;23.298;2022-12-08T14:33:38;23.83;;;9.43;;
18136;SDS011;9194;42.632;23.298;2022-12-08T14:38:40;25.90;;;9.33;;
18136;SDS011;9194;42.632;23.298;2022-12-08T14:43:41;32.27;;;13.03;;
18136;SDS011;9194;42.632;23.298;2022-12-08T14:48:43;27.67;;;10.47;;
18136;SDS011;9194;42.632;23.298;2022-12-08T14:59:14;32.73;;;12.23;;
18136;SDS011;9194;42.632;23.298;2022-12-08T15:04:23;24.60;;;11.90;;
18136;SDS011;9194;42.632;23.298;2022-12-08T15:09:34;25.67;;;12.17;;
18136;SDS011;9194;42.632;23.298;2022-12-08T15:14:57;26.30;;;11.20;;
18136;SDS011;9194;42.632;23.298;2022-12-08T15:20:01;21.50;;;10.97;;
18136;SDS011;9194;42.632;23.298;2022-12-08T15:25:04;27.17;;;11.67;;
18136;SDS011;9194;42.632;23.298;2022-12-08T15:30:10;27.37;;;10.37;;
18136;SDS011;9194;42.632;23.298;2022-12-08T15:35:16;27.50;;;11.90;;
18136;SDS011;9194;42.632;23.298;2022-12-08T15:40:18;24.30;;;8.60;;
18136;SDS011;9194;42.632;23.298;2022-12-08T15:45:23;19.00;;;8.10;;
18136;SDS011;9194;42.632;23.298;2022-12-08T15:50:30;30.37;;;11.90;;
18136;SDS011;9194;42.632;23.298;2022-12-08T15:55:34;17.93;;;6.50;;
18136;SDS011;9194;42.632;23.298;2022-12-08T16:00:36;18.63;;;7.40;;
18136;SDS011;9194;42.632;23.298;2022-12-08T16:05:37;30.73;;;9.80;;
18136;SDS011;9194;42.632;23.298;2022-12-08T16:10:39;21.47;;;9.37;;
18136;SDS011;9194;42.632;23.298;2022-12-08T16:15:42;18.30;;;9.33;;
18136;SDS011;9194;42.632;23.298;2022-12-08T16:20:44;19.40;;;10.30;;
18136;SDS011;9194;42.632;23.298;2022-12-08T16:25:45;31.93;;;14.30;;
18136;SDS011;9194;42.632;23.298;2022-12-08T16:30:47;33.97;;;12.50;;
18136;SDS011;9194;42.632;23.298;2022-12-08T16:35:48;24.17;;;10.20;;
18136;SDS011;9194;42.632;23.298;2022-12-08T16:40:50;14.57;;;7.90;;
18136;SDS011;9194;42.632;23.298;2022-12-08T16:46:17;17.57;;;6.20;;
18136;SDS011;9194;42.632;23.298;2022-12-08T16:51:23;15.30;;;6.23;;
18136;SDS011;9194;42.632;23.298;2022-12-08T16:56:25;29.83;;;12.07;;
18136;SDS011;9194;42.632;23.298;2022-12-08T17:01:27;28.57;;;9.37;;
18136;SDS011;9194;42.632;23.298;2022-12-08T17:06:28;38.03;;;14.30;;
18136;SDS011;9194;42.632;23.298;2022-12-08T17:11:30;43.23;;;17.53;;
18136;SDS011;9194;42.632;23.298;2022-12-08T17:16:32;46.47;;;19.37;;
18136;SDS011;9194;42.632;23.298;2022-12-08T17:21:33;48.23;;;20.50;;
18136;SDS011;9194;42.632;23.298;2022-12-08T17:26:35;49.53;;;19.57;;
18136;SDS011;9194;42.632;23.298;2022-12-08T17:31:36;43.77;;;17.43;;
18136;SDS011;9194;42.632;23.298;2022-12-08T17:36:38;52.43;;;20.23;;
18136;SDS011;9194;42.632;23.298;2022-12-08T17:41:39;40.00;;;19.00;;
18136;SDS011;9194;42.632;23.298;2022-12-08T17:46:41;59.20;;;20.23;;
18136;SDS011;9194;42.632;23.298;2022-12-08T17:51:47;49.80;;;18.57;;
18136;SDS011;9194;42.632;23.298;2022-12-08T17:56:49;45.53;;;20.10;;
18136;SDS011;9194;42.632;23.298;2022-12-08T18:01:51;38.20;;;17.47;;
18136;SDS011;9194;42.632;23.298;2022-12-08T18:06:53;52.50;;;18.67;;
18136;SDS011;9194;42.632;23.298;2022-12-08T18:11:55;45.00;;;17.80;;
18136;SDS011;9194;42.632;23.298;2022-12-08T18:16:56;46.20;;;18.13;;
18136;SDS011;9194;42.632;23.298;2022-12-08T18:21:57;46.43;;;16.13;;
18136;SDS011;9194;42.632;23.298;2022-12-08T18:26:59;47.40;;;19.43;;
18136;SDS011;9194;42.632;23.298;2022-12-08T18:32:00;57.30;;;25.37;;
18136;SDS011;9194;42.632;23.298;2022-12-08T18:37:01;81.37;;;32.03;;
18136;SDS011;9194;42.632;23.298;2022-12-08T18:42:03;70.30;;;29.33;;
18136;SDS011;9194;42.632;23.298;2022-12-08T18:47:22;61.67;;;24.87;;
18136;SDS011;9194;42.632;23.298;2022-12-08T18:52:25;55.73;;;26.30;;
18136;SDS011;9194;42.632;23.298;2022-12-08T18:57:27;63.80;;;24.07;;
18136;SDS011;9194;42.632;23.298;2022-12-08T19:02:30;50.50;;;23.03;;
18136;SDS011;9194;42.632;23.298;2022-12-08T19:07:31;54.30;;;20.40;;
18136;SDS011;9194;42.632;23.298;2022-12-08T19:12:33;44.30;;;18.37;;
18136;SDS011;9194;42.632;23.298;2022-12-08T19:17:34;42.57;;;15.80;;
18136;SDS011;9194;42.632;23.298;2022-12-08T19:22:35;39.43;;;14.77;;
18136;SDS011;9194;42.632;23.298;2022-12-08T19:27:37;34.07;;;13.77;;
18136;SDS011;9194;42.632;23.298;2022-12-08T19:32:38;41.60;;;14.77;;
18136;SDS011;9194;42.632;23.298;2022-12-08T19:37:40;34.90;;;13.27;;
18136;SDS011;9194;42.632;23.298;2022-12-08T19:42:41;50.23;;;15.23;;
18136;SDS011;9194;42.632;23.298;2022-12-08T19:48:01;38.47;;;12.93;;
18136;SDS011;9194;42.632;23.298;2022-12-08T19:53:03;55.73;;;17.17;;
18136;SDS011;9194;42.632;23.298;2022-12-08T19:58:06;41.20;;;16.50;;
18136;SDS011;9194;42.632;23.298;2022-12-08T20:03:09;46.60;;;17.17;;
18136;SDS011;9194;42.632;23.298;2022-12-08T20:08:17;54.57;;;17.80;;
18136;SDS011;9194;42.632;23.298;2022-12-08T20:13:18;53.37;;;16.23;;
18136;SDS011;9194;42.632;23.298;2022-12-08T20:18:38;42.80;;;15.77;;
18136;SDS011;9194;42.632;23.298;2022-12-08T20:23:41;47.20;;;20.10;;
18136;SDS011;9194;42.632;23.298;2022-12-08T20:28:45;51.53;;;21.97;;
18136;SDS011;9194;42.632;23.298;2022-12-08T20:33:46;60.37;;;22.17;;
18136;SDS011;9194;42.632;23.298;2022-12-08T20:38:48;67.47;;;23.67;;
18136;SDS011;9194;42.632;23.298;2022-12-08T20:43:51;54.47;;;17.23;;
18136;SDS011;9194;42.632;23.298;2022-12-08T20:48:54;29.50;;;7.70;;
18136;SDS011;9194;42.632;23.298;2022-12-08T20:53:55;49.30;;;18.17;;
18136;SDS011;9194;42.632;23.298;2022-12-08T20:58:57;35.23;;;17.20;;
18136;SDS011;9194;42.632;23.298;2022-12-08T21:03:59;45.43;;;15.67;;
18136;SDS011;9194;42.632;23.298;2022-12-08T21:09:03;38.60;;;15.90;;
18136;SDS011;9194;42.632;23.298;2022-12-08T21:14:04;35.60;;;13.87;;
18136;SDS011;9194;42.632;23.298;2022-12-08T21:19:06;38.27;;;11.77;;
18136;SDS011;9194;42.632;23.298;2022-12-08T21:24:08;28.03;;;12.47;;
18136;SDS011;9194;42.632;23.298;2022-12-08T21:29:10;30.67;;;12.97;;
18136;SDS011;9194;42.632;23.298;2022-12-08T21:34:12;28.63;;;11.13;;
18136;SDS011;9194;42.632;23.298;2022-12-08T21:39:13;37.47;;;10.80;;
18136;SDS011;9194;42.632;23.298;2022-12-08T21:44:15;34.67;;;10.90;;
18136;SDS011;9194;42.632;23.298;2022-12-08T21:49:19;37.10;;;10.80;;
18136;SDS011;9194;42.632;23.298;2022-12-08T21:54:21;26.90;;;9.70;;
18136;SDS011;9194;42.632;23.298;2022-12-08T21:59:22;25.63;;;8.03;;
18136;SDS011;9194;42.632;23.298;2022-12-08T22:04:23;29.47;;;9.23;;
18136;SDS011;9194;42.632;23.298;2022-12-08T22:09:25;22.23;;;8.87;;
18136;SDS011;9194;42.632;23.298;2022-12-08T22:14:26;24.43;;;9.40;;
18136;SDS011;9194;42.632;23.298;2022-12-08T22:19:28;24.60;;;8.37;;
18136;SDS011;9194;42.632;23.298;2022-12-08T22:24:36;26.87;;;9.87;;
18136;SDS011;9194;42.632;23.298;2022-12-08T22:29:37;36.87;;;9.80;;
18136;SDS011;9194;42.632;23.298;2022-12-08T22:34:39;39.67;;;8.83;;
18136;SDS011;9194;42.632;23.298;2022-12-08T22:39:43;28.87;;;9.10;;
18136;SDS011;9194;42.632;23.298;2022-12-08T22:44:44;24.23;;;7.10;;
18136;SDS011;9194;42.632;23.298;2022-12-08T22:49:46;32.50;;;8.67;;
18136;SDS011;9194;42.632;23.298;2022-12-08T22:54:47;25.73;;;7.57;;
18136;SDS011;9194;42.632;23.298;2022-12-08T22:59:48;28.80;;;8.47;;
18136;SDS011;9194;42.632;23.298;2022-12-08T23:04:50;33.43;;;8.80;;
18136;SDS011;9194;42.632;23.298;2022-12-08T23:09:55;21.47;;;8.07;;
18136;SDS011;9194;42.632;23.298;2022-12-08T23:14:57;39.70;;;8.87;;
18136;SDS011;9194;42.632;23.298;2022-12-08T23:19:58;31.67;;;9.10;;
18136;SDS011;9194;42.632;23.298;2022-12-08T23:24:59;48.37;;;8.77;;
18136;SDS011;9194;42.632;23.298;2022-12-08T23:30:01;32.20;;;9.20;;
18136;SDS011;9194;42.632;23.298;2022-12-08T23:35:03;36.20;;;8.57;;
18136;SDS011;9194;42.632;23.298;2022-12-08T23:40:06;33.93;;;10.00;;
18136;SDS011;9194;42.632;23.298;2022-12-08T23:45:07;26.10;;;9.07;;
18136;SDS011;9194;42.632;23.298;2022-12-08T23:50:09;25.97;;;7.90;;
18136;SDS011;9194;42.632;23.298;2022-12-08T23:55:11;20.30;;;7.50;;
